createdAt,value
2022-12-08T05:08:30.195Z,100887.63
2022-12-08T05:11:07.931Z,100885.22
2022-12-08T05:13:35.825Z,100891.97
2022-12-08T05:16:10.567Z,100894.38
2022-12-08T05:18:38.842Z,100890.84
2022-12-08T05:21:06.761Z,100885.50
2022-12-08T05:23:34.675Z,100881.59
2022-12-08T05:26:02.668Z,100889.19
2022-12-08T05:28:46.109Z,100886.75
2022-12-08T05:31:16.264Z,100883.44
2022-12-08T05:33:45.373Z,100881.25
2022-12-08T05:36:15.174Z,100884.94
2022-12-08T05:38:43.926Z,100875.97
2022-12-08T05:41:15.168Z,100872.59
2022-12-08T05:43:42.663Z,100880.38
2022-12-08T05:46:10.396Z,100883.13
2022-12-08T05:48:37.858Z,100886.44
2022-12-08T05:51:07.462Z,100885.69
2022-12-08T05:53:34.774Z,100893.63
2022-12-08T05:56:02.468Z,100886.25
2022-12-08T05:58:29.960Z,100887.81
2022-12-08T06:00:58.108Z,100882.88
2022-12-08T06:03:26.073Z,100880.38
2022-12-08T06:05:53.444Z,100877.69
2022-12-08T06:08:20.972Z,100873.06
2022-12-08T06:10:49.359Z,100886.66
2022-12-08T06:13:16.871Z,100880.13
2022-12-08T06:15:44.213Z,100882.78
2022-12-08T06:18:11.973Z,100884.41
2022-12-08T06:20:39.246Z,100889.53
2022-12-08T06:23:06.661Z,100895.41
2022-12-08T06:25:33.963Z,100899.09
2022-12-08T06:28:01.904Z,100897.41
2022-12-08T06:30:29.694Z,100891.00
2022-12-08T06:32:57.012Z,100892.78
2022-12-08T06:35:24.360Z,100891.03
2022-12-08T06:37:51.767Z,100894.91
2022-12-08T06:40:20.018Z,100899.06
2022-12-08T06:42:47.813Z,100896.09
2022-12-08T06:45:17.185Z,100895.56
2022-12-08T06:47:44.718Z,100892.63
2022-12-08T06:50:13.759Z,100897.72
2022-12-08T06:52:51.752Z,100891.53
2022-12-08T06:55:57.446Z,100884.13
2022-12-08T06:58:12.900Z,100886.38
2022-12-08T07:00:41.305Z,100889.22
2022-12-08T07:03:09.913Z,100892.53
2022-12-08T07:05:38.656Z,100894.00
2022-12-08T07:08:08.693Z,100897.00
2022-12-08T07:10:36.668Z,100899.97
2022-12-08T07:13:04.351Z,100896.97
2022-12-08T07:15:31.898Z,100907.47
2022-12-08T07:18:00.475Z,100907.53
2022-12-08T07:20:28.129Z,100905.25
2022-12-08T07:22:55.645Z,100906.38
2022-12-08T07:25:23.186Z,100901.00
2022-12-08T07:27:51.767Z,100897.72
2022-12-08T07:30:19.419Z,100900.28
2022-12-08T07:32:47.126Z,100898.72
2022-12-08T07:35:14.954Z,100904.78
2022-12-08T07:37:43.134Z,100897.28
2022-12-08T07:40:11.767Z,100898.47
2022-12-08T07:42:40.151Z,100902.66
2022-12-08T07:45:08.640Z,100896.00
2022-12-08T07:47:36.294Z,100896.69
2022-12-08T07:50:04.370Z,100902.78
2022-12-08T07:52:34.357Z,100904.66
2022-12-08T07:55:02.304Z,100906.72
2022-12-08T07:57:29.664Z,100898.19
2022-12-08T07:59:56.935Z,100898.31
2022-12-08T08:02:25.951Z,100906.63
2022-12-08T08:04:53.843Z,100896.91
2022-12-08T08:07:21.375Z,100898.03
2022-12-08T08:09:48.663Z,100898.13
2022-12-08T08:12:31.418Z,100894.00
2022-12-08T08:15:01.047Z,100894.94
2022-12-08T08:17:29.431Z,100893.16
2022-12-08T08:19:58.343Z,100896.03
2022-12-08T08:22:26.700Z,100892.25
2022-12-08T08:24:54.443Z,100891.50
2022-12-08T08:27:22.578Z,100884.88
2022-12-08T08:29:49.876Z,100886.50
2022-12-08T08:32:17.876Z,100889.56
2022-12-08T08:34:45.594Z,100894.34
2022-12-08T08:37:12.928Z,100893.91
2022-12-08T08:39:42.966Z,100891.81
2022-12-08T08:42:10.201Z,100894.50
2022-12-08T08:44:38.842Z,100889.84
2022-12-08T08:47:07.172Z,100899.91
2022-12-08T08:49:34.612Z,100893.88
2022-12-08T08:52:03.268Z,100904.66
2022-12-08T08:54:30.690Z,100906.84
2022-12-08T08:56:59.106Z,100902.53
2022-12-08T08:59:27.503Z,100907.66
2022-12-08T09:01:55.540Z,100898.03
2022-12-08T09:04:23.253Z,100896.66
2022-12-08T09:06:50.645Z,100903.97
2022-12-08T09:09:18.720Z,100904.19
2022-12-08T09:11:46.097Z,100918.22
2022-12-08T09:14:15.568Z,100910.75
2022-12-08T09:16:43.301Z,100909.19
2022-12-08T09:19:11.074Z,100910.31
2022-12-08T09:21:39.801Z,100904.88
2022-12-08T09:24:08.303Z,100904.91
2022-12-08T09:26:35.544Z,100913.22
2022-12-08T09:29:02.950Z,100908.75
2022-12-08T09:31:30.792Z,100911.13
2022-12-08T09:33:59.265Z,100908.28
2022-12-08T09:36:26.870Z,100906.72
2022-12-08T09:38:54.790Z,100898.44
2022-12-08T09:41:48.292Z,100890.41
2022-12-08T09:44:31.674Z,100888.72
2022-12-08T09:47:05.639Z,100888.47
2022-12-08T09:49:47.063Z,100873.00
2022-12-08T09:52:38.155Z,100874.34
2022-12-08T09:55:15.576Z,100874.75
2022-12-08T09:57:43.685Z,100879.06
2022-12-08T10:00:13.613Z,100882.72
2022-12-08T10:02:47.650Z,100886.13
2022-12-08T10:05:15.751Z,100878.31
2022-12-08T10:07:49.449Z,100883.53
2022-12-08T10:10:16.831Z,100877.34
2022-12-08T10:13:11.822Z,100872.38
2022-12-08T10:16:00.855Z,100868.72
2022-12-08T10:18:32.931Z,100874.19
2022-12-08T10:21:17.077Z,100869.88
2022-12-08T10:23:53.046Z,100865.03
2022-12-08T10:26:22.288Z,100857.72
2022-12-08T10:28:49.958Z,100856.28
2022-12-08T10:31:20.221Z,100855.63
2022-12-08T10:34:00.475Z,100855.06
2022-12-08T10:36:46.805Z,100850.66
2022-12-08T10:39:29.896Z,100858.16
2022-12-08T10:42:03.105Z,100854.72
2022-12-08T10:44:30.556Z,100846.63
2022-12-08T10:46:57.901Z,100840.59
2022-12-08T10:49:29.203Z,100851.53
2022-12-08T10:51:56.558Z,100843.13
2022-12-08T10:54:32.558Z,100844.44
2022-12-08T10:57:00.351Z,100850.94
2022-12-08T10:59:29.200Z,100844.56
2022-12-08T11:01:57.534Z,100836.50
2022-12-08T11:04:30.765Z,100822.44
2022-12-08T11:06:58.556Z,100824.31
2022-12-08T11:09:41.988Z,100815.69
2022-12-08T11:12:15.302Z,100811.34
2022-12-08T11:14:42.748Z,100820.94
2022-12-08T11:17:16.635Z,100817.22
2022-12-08T11:19:54.518Z,100809.31
2022-12-08T11:22:32.328Z,100809.31
2022-12-08T11:25:12.081Z,100804.72
2022-12-08T11:27:42.054Z,100796.53
2022-12-08T11:30:16.737Z,100798.75
2022-12-08T11:32:46.540Z,100797.13
2022-12-08T11:35:23.271Z,100797.31
2022-12-08T11:37:51.177Z,100798.59
2022-12-08T11:40:28.546Z,100798.41
2022-12-08T11:43:20.536Z,100806.84
2022-12-08T11:45:59.851Z,100804.63
2022-12-08T11:48:35.498Z,100796.00
2022-12-08T11:51:09.550Z,100792.53
2022-12-08T11:53:55.942Z,100788.41
2022-12-08T11:56:32.944Z,100779.00
2022-12-08T11:59:15.729Z,100777.72
2022-12-08T12:01:43.475Z,100780.31
2022-12-08T12:04:34.160Z,100778.66
2022-12-08T12:07:39.481Z,100770.72
2022-12-08T12:10:07.638Z,100770.22
2022-12-08T12:13:12.649Z,100767.00
2022-12-08T12:15:58.542Z,100760.06
2022-12-08T12:18:46.485Z,100746.47
2022-12-08T12:21:19.486Z,100749.25
2022-12-08T12:23:50.341Z,100738.66
2022-12-08T12:26:24.558Z,100748.19
2022-12-08T12:29:02.264Z,100745.34
2022-12-08T12:31:33.613Z,100748.34
2022-12-08T12:34:24.184Z,100739.75
2022-12-08T12:36:57.722Z,100737.91
2022-12-08T12:39:30.646Z,100738.72
2022-12-08T12:42:00.767Z,100735.50
2022-12-08T12:44:28.954Z,100737.38
2022-12-08T12:46:59.780Z,100744.00
2022-12-08T12:49:39.891Z,100738.41
2022-12-08T12:52:10.759Z,100742.88
2022-12-08T12:54:43.231Z,100729.47
2022-12-08T12:57:10.546Z,100723.38
2022-12-08T12:59:43.571Z,100722.78
2022-12-08T13:02:30.288Z,100722.00
2022-12-08T13:05:18.747Z,100718.44
2022-12-08T13:07:56.832Z,100718.22
2022-12-08T13:10:33.391Z,100711.06
2022-12-08T13:13:10.672Z,100722.66
2022-12-08T13:15:40.450Z,100722.44
2022-12-08T13:18:19.450Z,100715.53
2022-12-08T13:20:50.814Z,100715.00
2022-12-08T13:23:29.175Z,100697.69
2022-12-08T13:26:12.057Z,100696.47
2022-12-08T13:29:04.157Z,100703.28
2022-12-08T13:31:35.463Z,100689.50
2022-12-08T13:34:09.347Z,100688.31
2022-12-08T13:36:42.160Z,100688.91
2022-12-08T13:39:26.724Z,100688.78
2022-12-08T13:42:01.524Z,100687.06
2022-12-08T13:48:23.465Z,100687.75
2022-12-08T13:57:05.113Z,100683.03
2022-12-08T13:59:34.311Z,100678.44
2022-12-08T14:02:16.948Z,100679.59
2022-12-08T14:05:16.754Z,100680.53
2022-12-08T14:07:34.970Z,100676.63
2022-12-08T14:10:04.759Z,100677.44
2022-12-08T14:12:33.055Z,100683.38
2022-12-08T14:15:06.731Z,100684.09
2022-12-08T14:17:34.720Z,100684.72
2022-12-08T14:20:14.429Z,100683.69
2022-12-08T14:22:42.274Z,100680.50
2022-12-08T14:25:14.482Z,100681.72
2022-12-08T14:27:42.543Z,100690.16
2022-12-08T14:30:16.079Z,100689.47
2022-12-08T14:32:54.690Z,100693.88
2022-12-08T14:35:24.450Z,100687.59
2022-12-08T14:37:56.472Z,100693.13
2022-12-08T14:40:35.955Z,100688.06
2022-12-08T14:43:10.251Z,100689.75
2022-12-08T14:45:40.705Z,100690.81
2022-12-08T14:48:27.808Z,100698.91
2022-12-08T14:51:20.368Z,100697.06
2022-12-08T14:54:05.468Z,100696.06
2022-12-08T14:56:38.263Z,100691.31
2022-12-08T14:59:26.208Z,100686.56
2022-12-08T15:02:27.171Z,100683.03
2022-12-08T15:05:02.691Z,100674.25
2022-12-08T15:07:37.549Z,100679.66
2022-12-08T15:10:17.461Z,100685.53
2022-12-08T15:13:05.802Z,100687.97
2022-12-08T15:15:48.481Z,100686.94
2022-12-08T15:18:35.158Z,100696.88
2022-12-08T15:21:05.935Z,100705.28
2022-12-08T15:23:41.819Z,100710.94
2022-12-08T15:26:21.172Z,100711.63
2022-12-08T15:28:48.588Z,100713.81
2022-12-08T15:31:17.800Z,100715.78
2022-12-08T15:33:45.243Z,100707.53
2022-12-08T15:36:12.683Z,100701.97
2022-12-08T15:38:39.917Z,100700.63
2022-12-08T15:41:11.512Z,100698.81
2022-12-08T15:43:41.945Z,100696.75
2022-12-08T15:46:09.301Z,100685.59
2022-12-08T15:48:37.418Z,100694.38
2022-12-08T15:51:05.329Z,100689.81
2022-12-08T15:53:33.034Z,100694.38
2022-12-08T15:58:55.630Z,100696.94
2022-12-08T16:01:24.008Z,100700.66
2022-12-08T16:04:36.965Z,100703.16
2022-12-08T16:07:20.260Z,100695.88
2022-12-08T16:09:34.304Z,100691.31
2022-12-08T16:12:21.033Z,100691.00
2022-12-08T16:17:36.923Z,100693.84
2022-12-08T16:20:07.560Z,100693.13
2022-12-08T16:25:24.547Z,100691.06
2022-12-08T16:28:17.319Z,100685.00
2022-12-08T16:30:42.591Z,100692.91
2022-12-08T16:33:12.094Z,100685.63
2022-12-08T16:35:41.355Z,100678.06
2022-12-08T16:38:14.687Z,100681.13
2022-12-08T16:41:07.279Z,100670.31
2022-12-08T16:43:35.243Z,100667.97
2022-12-08T16:46:03.324Z,100675.59
2022-12-08T16:48:31.579Z,100676.94
2022-12-08T16:50:59.310Z,100681.38
2022-12-08T16:53:27.082Z,100678.34
2022-12-08T16:55:54.445Z,100681.88
2022-12-08T16:58:22.171Z,100686.03
2022-12-08T17:00:52.209Z,100699.84
2022-12-08T17:03:19.558Z,100692.59
2022-12-08T17:05:46.900Z,100694.19
2022-12-08T17:08:14.357Z,100689.47
2022-12-08T17:10:41.879Z,100680.19
2022-12-08T17:13:09.494Z,100694.19
2022-12-08T17:15:36.855Z,100692.16
2022-12-08T17:18:04.433Z,100689.59
2022-12-08T17:20:34.049Z,100689.03
2022-12-08T17:23:01.455Z,100683.44
2022-12-08T17:25:28.991Z,100681.13
2022-12-08T17:27:56.780Z,100683.97
2022-12-08T17:30:24.036Z,100689.38
2022-12-08T17:32:52.825Z,100684.84
2022-12-08T17:35:24.460Z,100680.25
2022-12-08T17:37:52.471Z,100680.00
2022-12-08T17:40:19.872Z,100687.72
2022-12-08T17:42:47.123Z,100685.34
2022-12-08T17:45:14.484Z,100685.75
2022-12-08T17:47:42.281Z,100681.03
2022-12-08T17:50:09.831Z,100680.34
2022-12-08T17:52:37.374Z,100682.56
2022-12-08T17:55:05.148Z,100673.44
2022-12-08T17:57:32.424Z,100689.84
2022-12-08T17:59:59.730Z,100678.84
2022-12-08T18:02:27.713Z,100680.19
2022-12-08T18:04:55.439Z,100681.72
2022-12-08T18:07:23.107Z,100691.66
2022-12-08T18:09:51.514Z,100692.88
2022-12-08T18:12:23.405Z,100691.53
2022-12-08T18:14:52.418Z,100694.53
2022-12-08T18:17:20.692Z,100687.97
2022-12-08T18:19:48.503Z,100696.06
2022-12-08T18:22:16.051Z,100703.31
2022-12-08T18:24:44.412Z,100701.16
2022-12-08T18:27:11.840Z,100697.28
2022-12-08T18:29:39.964Z,100696.25
2022-12-08T18:32:08.361Z,100701.97
2022-12-08T18:34:36.086Z,100699.25
2022-12-08T18:37:04.508Z,100708.06
2022-12-08T18:39:33.517Z,100692.91
2022-12-08T18:42:22.292Z,100694.38
2022-12-08T18:44:51.607Z,100696.41
2022-12-08T18:47:19.290Z,100699.63
2022-12-08T18:49:47.515Z,100707.56
2022-12-08T18:52:19.269Z,100697.25
2022-12-08T18:55:05.658Z,100695.09
2022-12-08T18:57:33.594Z,100701.84
2022-12-08T19:00:02.595Z,100709.44
2022-12-08T19:02:30.548Z,100691.06
2022-12-08T19:04:57.984Z,100692.06
2022-12-08T19:07:25.780Z,100686.66
2022-12-08T19:09:53.108Z,100683.44
2022-12-08T19:12:20.406Z,100683.75
2022-12-08T19:14:48.079Z,100678.53
2022-12-08T19:17:15.941Z,100675.63
2022-12-08T19:19:43.383Z,100681.31
2022-12-08T19:22:12.235Z,100679.66
2022-12-08T19:24:39.604Z,100680.91
2022-12-08T19:27:07.059Z,100674.94
2022-12-08T19:29:34.997Z,100681.50
2022-12-08T19:32:05.060Z,100684.34
2022-12-08T19:34:32.490Z,100676.59
2022-12-08T19:36:59.823Z,100677.38
2022-12-08T19:39:45.822Z,100674.41
2022-12-08T19:42:37.699Z,100678.50
2022-12-08T19:45:12.073Z,100674.97
2022-12-08T19:47:40.169Z,100674.97
2022-12-08T19:50:28.061Z,100677.66
2022-12-08T19:52:56.016Z,100677.47
2022-12-08T19:55:24.541Z,100687.41
2022-12-08T19:57:53.229Z,100685.75
2022-12-08T20:00:21.523Z,100687.94
2022-12-08T20:02:49.299Z,100682.31
2022-12-08T20:05:16.772Z,100686.38
2022-12-08T20:07:44.628Z,100682.53
2022-12-08T20:10:17.271Z,100678.66
2022-12-08T20:12:45.465Z,100677.94
2022-12-08T20:15:14.687Z,100674.19
2022-12-08T20:17:43.543Z,100676.91
2022-12-08T20:20:14.271Z,100662.56
2022-12-08T20:22:42.628Z,100668.19
2022-12-08T20:25:13.091Z,100675.28
2022-12-08T20:27:41.325Z,100682.34
2022-12-08T20:30:15.060Z,100683.22
2022-12-08T20:32:45.065Z,100681.03
2022-12-08T20:35:13.135Z,100672.94
2022-12-08T20:37:40.459Z,100669.41
2022-12-08T20:40:08.493Z,100662.63
2022-12-08T20:42:35.805Z,100667.84
2022-12-08T20:45:06.372Z,100656.63
2022-12-08T20:47:34.206Z,100655.16
2022-12-08T20:50:02.727Z,100665.13
2022-12-08T20:52:30.725Z,100668.19
2022-12-08T20:54:58.135Z,100664.25
2022-12-08T20:57:25.999Z,100663.75
2022-12-08T20:59:53.390Z,100659.38
2022-12-08T21:02:20.764Z,100665.13
2022-12-08T21:04:48.898Z,100657.84
2022-12-08T21:07:16.389Z,100663.56
2022-12-08T21:09:44.163Z,100662.38
2022-12-08T21:12:12.225Z,100660.66
2022-12-08T21:14:40.661Z,100662.38
2022-12-08T21:17:08.668Z,100664.13
2022-12-08T21:19:36.556Z,100663.06
2022-12-08T21:22:04.408Z,100672.59
2022-12-08T21:24:34.329Z,100673.19
2022-12-08T21:27:03.597Z,100677.63
2022-12-08T21:29:31.001Z,100674.72
2022-12-08T21:32:00.191Z,100678.59
2022-12-08T21:34:31.945Z,100674.44
2022-12-08T21:37:00.041Z,100679.69
2022-12-08T21:39:27.611Z,100682.00
2022-12-08T21:42:13.723Z,100684.94
2022-12-08T21:44:41.418Z,100678.06
2022-12-08T21:47:08.861Z,100687.81
2022-12-08T21:49:36.281Z,100680.03
2022-12-08T21:52:04.014Z,100696.41
2022-12-08T21:54:31.523Z,100690.38
2022-12-08T21:56:59.024Z,100692.22
2022-12-08T21:59:26.891Z,100700.16
2022-12-08T22:01:54.406Z,100696.25
2022-12-08T22:04:24.553Z,100695.59
2022-12-08T22:06:52.684Z,100690.50
2022-12-08T22:09:20.130Z,100686.78
2022-12-08T22:11:47.588Z,100688.75
2022-12-08T22:14:15.635Z,100686.94
2022-12-08T22:16:44.085Z,100687.72
2022-12-08T22:19:12.204Z,100690.47
2022-12-08T22:21:39.897Z,100694.00
2022-12-08T22:24:07.605Z,100693.84
2022-12-08T22:26:35.752Z,100697.41
2022-12-08T22:29:03.042Z,100686.97
2022-12-08T22:31:31.089Z,100694.72
2022-12-08T22:33:58.966Z,100688.63
2022-12-08T22:36:28.142Z,100699.09
2022-12-08T22:38:55.766Z,100688.97
2022-12-08T22:41:23.954Z,100689.13
2022-12-08T22:43:51.752Z,100688.44
2022-12-08T22:46:20.645Z,100688.09
2022-12-08T22:48:49.118Z,100686.75
2022-12-08T22:51:17.492Z,100689.47
2022-12-08T22:53:45.636Z,100689.50
2022-12-08T22:56:14.648Z,100694.38
2022-12-08T22:58:43.032Z,100689.84
2022-12-08T23:01:22.174Z,100693.88
2022-12-08T23:03:50.222Z,100688.47
